createdAt,value
2022-07-25T00:01:09.481Z,5.15
2022-07-25T00:03:39.147Z,5.13
2022-07-25T00:06:13.032Z,4.80
2022-07-25T00:08:47.268Z,4.82
2022-07-25T00:11:15.550Z,4.40
2022-07-25T00:13:43.945Z,5.35
2022-07-25T00:16:12.058Z,6.40
2022-07-25T00:18:40.540Z,5.90
2022-07-25T00:21:08.580Z,5.70
2022-07-25T00:23:36.875Z,5.25
2022-07-25T00:26:06.516Z,5.55
2022-07-25T00:28:34.809Z,5.78
2022-07-25T00:31:02.893Z,4.90
2022-07-25T00:33:31.181Z,5.80
2022-07-25T00:35:59.781Z,5.57
2022-07-25T00:38:28.083Z,4.68
2022-07-25T00:40:56.412Z,5.65
2022-07-25T00:43:26.138Z,5.43
2022-07-25T00:45:54.165Z,5.80
2022-07-25T00:48:22.482Z,5.80
2022-07-25T00:50:50.600Z,5.75
2022-07-25T00:53:19.853Z,6.30
2022-07-25T00:55:48.752Z,5.40
2022-07-25T00:58:18.787Z,6.30
2022-07-25T01:00:48.899Z,5.47
2022-07-25T01:03:17.754Z,5.80
2022-07-25T01:05:50.237Z,6.15
2022-07-25T01:08:22.419Z,6.15
2022-07-25T01:10:51.055Z,5.88
2022-07-25T01:13:19.092Z,5.72
2022-07-25T01:15:50.543Z,5.70
2022-07-25T01:18:18.788Z,5.88
2022-07-25T01:20:48.676Z,6.43
2022-07-25T01:23:16.795Z,6.00
2022-07-25T01:25:45.883Z,5.78
2022-07-25T01:28:14.867Z,5.78
2022-07-25T01:30:43.374Z,6.30
2022-07-25T01:33:15.842Z,6.22
2022-07-25T01:35:44.390Z,6.55
2022-07-25T01:38:14.836Z,6.65
2022-07-25T01:40:43.389Z,6.22
2022-07-25T01:43:11.889Z,5.70
2022-07-25T01:45:40.014Z,6.13
2022-07-25T01:48:08.707Z,6.00
2022-07-25T01:50:36.794Z,6.15
2022-07-25T01:53:05.579Z,5.85
2022-07-25T01:55:35.041Z,6.30
2022-07-25T01:58:03.330Z,6.20
2022-07-25T02:00:31.481Z,6.13
2022-07-25T02:03:17.047Z,6.20
2022-07-25T02:05:45.154Z,6.03
2022-07-25T02:08:13.442Z,6.28
2022-07-25T02:10:43.401Z,5.80
2022-07-25T02:13:11.436Z,7.18
2022-07-25T02:15:39.981Z,7.25
2022-07-25T02:18:08.284Z,6.25
2022-07-25T02:20:36.598Z,5.93
2022-07-25T02:23:04.977Z,6.43
2022-07-25T02:25:34.487Z,6.35
2022-07-25T02:28:04.209Z,6.85
2022-07-25T02:30:32.497Z,6.40
2022-07-25T02:33:00.944Z,5.82
2022-07-25T02:35:29.229Z,6.00
2022-07-25T02:37:57.222Z,6.13
2022-07-25T02:40:25.471Z,6.35
2022-07-25T02:42:53.656Z,6.05
2022-07-25T02:45:23.275Z,6.07
2022-07-25T02:47:51.434Z,5.85
2022-07-25T02:50:19.803Z,5.57
2022-07-25T02:52:47.982Z,6.05
2022-07-25T02:55:16.014Z,5.80
2022-07-25T02:57:44.273Z,5.80
2022-07-25T03:00:13.763Z,5.70
2022-07-25T03:02:43.567Z,6.10
2022-07-25T03:05:13.536Z,6.20
2022-07-25T03:07:42.419Z,6.25
2022-07-25T03:10:13.048Z,6.10
2022-07-25T03:12:42.841Z,5.35
2022-07-25T03:15:12.922Z,6.57
2022-07-25T03:17:43.262Z,6.38
2022-07-25T03:20:12.207Z,5.60
2022-07-25T03:22:40.509Z,5.85
2022-07-25T03:25:15.753Z,6.10
2022-07-25T03:27:50.689Z,5.72
2022-07-25T03:30:19.032Z,5.28
2022-07-25T03:32:48.670Z,6.18
2022-07-25T03:35:17.174Z,6.43
2022-07-25T03:37:45.610Z,5.85
2022-07-25T03:40:16.033Z,6.10
2022-07-25T03:42:44.803Z,6.03
2022-07-25T03:45:13.192Z,5.32
2022-07-25T03:47:41.237Z,7.63
2022-07-25T03:50:11.891Z,6.05
2022-07-25T03:52:39.883Z,6.00
2022-07-25T03:55:09.473Z,5.70
2022-07-25T03:57:37.603Z,9.00
2022-07-25T04:00:07.767Z,12.45
2022-07-25T04:02:37.536Z,6.32
2022-07-25T04:05:06.564Z,6.28
2022-07-25T04:07:36.018Z,5.63
2022-07-25T04:10:05.321Z,5.20
2022-07-25T04:12:33.636Z,5.57
2022-07-25T04:15:02.022Z,6.13
2022-07-25T04:17:30.265Z,6.22
2022-07-25T04:19:58.545Z,5.50
2022-07-25T04:22:27.043Z,5.57
2022-07-25T04:24:56.389Z,5.50
2022-07-25T04:27:24.961Z,5.05
2022-07-25T04:29:53.003Z,5.00
2022-07-25T04:32:23.528Z,5.13
2022-07-25T04:34:52.551Z,5.93
2022-07-25T04:37:20.805Z,4.72
2022-07-25T04:39:48.955Z,4.47
2022-07-25T04:42:18.577Z,5.03
2022-07-25T04:44:46.642Z,5.20
2022-07-25T04:47:14.742Z,4.55
2022-07-25T04:49:42.862Z,4.30
2022-07-25T04:52:10.873Z,5.32
2022-07-25T04:54:39.254Z,6.15
2022-07-25T04:57:07.315Z,4.68
2022-07-25T04:59:36.911Z,4.72
2022-07-25T05:02:05.029Z,4.40
2022-07-25T05:04:33.119Z,4.47
2022-07-25T05:07:03.297Z,4.53
2022-07-25T05:09:31.492Z,4.65
2022-07-25T05:11:59.534Z,4.65
2022-07-25T05:14:27.933Z,5.07
2022-07-25T05:16:57.382Z,4.18
2022-07-25T05:19:26.172Z,4.40
2022-07-25T05:21:54.300Z,4.40
2022-07-25T05:24:23.105Z,4.60
2022-07-25T05:26:51.217Z,4.38
2022-07-25T05:29:19.516Z,4.78
2022-07-25T05:31:47.753Z,4.22
2022-07-25T05:34:17.190Z,4.55
2022-07-25T05:36:47.329Z,4.10
2022-07-25T05:39:15.902Z,4.22
2022-07-25T05:41:44.162Z,4.75
2022-07-25T05:47:00.306Z,4.88
2022-07-25T05:49:29.837Z,4.82
2022-07-25T05:51:58.121Z,4.80
2022-07-25T05:54:26.222Z,5.53
2022-07-25T05:56:55.883Z,5.20
2022-07-25T05:59:24.090Z,5.28
2022-07-25T06:01:52.405Z,4.68
2022-07-25T06:04:25.403Z,4.63
2022-07-25T06:06:56.841Z,4.32
2022-07-25T06:09:25.529Z,4.47
2022-07-25T06:12:00.417Z,4.28
2022-07-25T06:14:29.908Z,4.80
2022-07-25T06:16:58.084Z,4.80
2022-07-25T06:19:26.302Z,4.32
2022-07-25T06:21:54.369Z,5.38
2022-07-25T06:24:24.023Z,4.55
2022-07-25T06:26:52.127Z,4.78
2022-07-25T06:29:20.250Z,4.93
2022-07-25T06:31:48.418Z,4.60
2022-07-25T06:34:16.601Z,4.85
2022-07-25T06:36:44.694Z,5.20
2022-07-25T06:39:12.923Z,4.82
2022-07-25T06:41:42.287Z,4.30
2022-07-25T06:44:10.689Z,4.03
2022-07-25T06:46:38.810Z,5.03
2022-07-25T06:49:07.282Z,4.47
2022-07-25T06:51:35.939Z,3.95
2022-07-25T06:54:04.574Z,4.28
2022-07-25T06:56:33.203Z,3.90
2022-07-25T06:59:02.595Z,4.30
2022-07-25T07:01:30.948Z,4.60
2022-07-25T07:03:59.085Z,3.97
2022-07-25T07:06:27.329Z,4.28
2022-07-25T07:08:56.092Z,3.85
2022-07-25T07:11:24.440Z,3.78
2022-07-25T07:13:52.467Z,4.47
2022-07-25T07:16:21.952Z,3.58
2022-07-25T07:18:50.048Z,3.95
2022-07-25T07:21:21.421Z,3.70
2022-07-25T07:23:53.452Z,4.05
2022-07-25T07:26:22.417Z,4.10
2022-07-25T07:28:50.643Z,3.35
2022-07-25T07:31:19.305Z,3.33
2022-07-25T07:33:48.953Z,3.20
2022-07-25T07:36:17.592Z,3.13
2022-07-25T07:38:45.742Z,3.35
2022-07-25T07:41:14.073Z,3.15
2022-07-25T07:43:42.367Z,3.30
2022-07-25T07:46:10.507Z,2.90
2022-07-25T07:48:38.902Z,3.58
2022-07-25T07:51:08.660Z,3.55
2022-07-25T07:53:54.336Z,3.42
2022-07-25T07:56:22.423Z,3.35
2022-07-25T07:58:50.858Z,3.45
2022-07-25T08:01:18.977Z,3.50
2022-07-25T08:03:47.236Z,3.80
2022-07-25T08:06:16.743Z,3.42
2022-07-25T08:08:45.061Z,3.58
2022-07-25T08:11:13.029Z,3.47
2022-07-25T08:13:41.162Z,3.50
2022-07-25T08:16:11.952Z,3.20
2022-07-25T08:18:40.422Z,3.20
2022-07-25T08:21:08.726Z,3.30
2022-07-25T08:23:39.250Z,2.97
2022-07-25T08:26:08.204Z,3.05
2022-07-25T08:28:36.309Z,2.50
2022-07-25T08:31:04.693Z,2.50
2022-07-25T08:33:32.810Z,2.92
2022-07-25T08:36:01.297Z,2.50
2022-07-25T08:38:29.997Z,2.75
2022-07-25T08:40:59.956Z,2.60
2022-07-25T08:43:32.863Z,2.80
2022-07-25T08:46:03.142Z,2.58
2022-07-25T08:48:31.618Z,3.05
2022-07-25T08:51:00.860Z,2.78
2022-07-25T08:53:33.183Z,2.60
2022-07-25T08:56:10.659Z,2.60
2022-07-25T08:58:43.967Z,3.00
2022-07-25T09:01:12.799Z,2.67
2022-07-25T09:03:41.129Z,3.05
2022-07-25T09:06:20.060Z,3.00
2022-07-25T09:08:55.694Z,3.33
2022-07-25T09:11:33.882Z,3.58
2022-07-25T09:14:05.260Z,2.95
2022-07-25T09:16:35.630Z,3.08
2022-07-25T09:19:11.902Z,3.05
2022-07-25T09:21:41.250Z,3.03
2022-07-25T09:24:15.836Z,2.90
2022-07-25T09:26:47.497Z,3.67
2022-07-25T09:29:23.951Z,3.70
2022-07-25T09:31:53.198Z,3.40
2022-07-25T09:34:34.058Z,3.72
2022-07-25T09:37:02.836Z,3.17
2022-07-25T09:39:45.015Z,3.80
2022-07-25T09:42:24.312Z,3.15
2022-07-25T09:45:05.409Z,3.05
2022-07-25T09:47:37.827Z,3.63
2022-07-25T09:50:07.758Z,3.60
2022-07-25T09:52:36.712Z,3.00
2022-07-25T09:55:06.527Z,3.63
2022-07-25T09:57:35.914Z,3.17
2022-07-25T10:00:05.962Z,3.05
2022-07-25T10:02:48.490Z,2.88
2022-07-25T10:05:20.671Z,3.30
2022-07-25T10:07:51.482Z,3.10
2022-07-25T10:10:28.550Z,2.65
2022-07-25T10:13:07.881Z,2.72
2022-07-25T10:15:46.305Z,3.20
2022-07-25T10:18:15.420Z,2.78
2022-07-25T10:20:44.322Z,2.08
2022-07-25T10:23:24.045Z,2.55
2022-07-25T10:26:03.132Z,2.15
2022-07-25T10:28:43.601Z,2.35
2022-07-25T10:31:36.362Z,2.47
2022-07-25T10:34:07.747Z,2.50
2022-07-25T10:36:43.918Z,2.75
2022-07-25T10:39:15.113Z,2.40
2022-07-25T10:41:45.647Z,2.53
2022-07-25T10:44:16.645Z,2.53
2022-07-25T10:46:45.798Z,2.72
2022-07-25T10:49:23.554Z,2.40
2022-07-25T10:51:57.991Z,2.75
2022-07-25T10:54:26.148Z,2.58
2022-07-25T10:56:57.130Z,2.97
2022-07-25T10:59:31.719Z,2.85
2022-07-25T11:02:00.095Z,3.50
2022-07-25T11:04:28.771Z,2.70
2022-07-25T11:06:56.906Z,3.00
2022-07-25T11:09:28.173Z,3.05
2022-07-25T11:11:59.065Z,3.20
2022-07-25T11:14:32.946Z,2.78
2022-07-25T11:17:13.203Z,3.33
2022-07-25T11:19:42.683Z,2.95
2022-07-25T11:22:11.116Z,3.05
2022-07-25T11:24:41.274Z,3.08
2022-07-25T11:27:12.498Z,3.00
2022-07-25T11:29:42.690Z,3.25
2022-07-25T11:32:12.574Z,3.22
2022-07-25T11:34:44.936Z,3.05
2022-07-25T11:37:14.500Z,2.47
2022-07-25T11:39:45.141Z,2.92
2022-07-25T11:42:16.301Z,2.35
2022-07-25T11:44:48.481Z,2.50
2022-07-25T11:47:26.001Z,2.53
2022-07-25T11:49:56.188Z,2.95
2022-07-25T11:52:26.243Z,2.95
2022-07-25T11:54:55.595Z,3.15
2022-07-25T11:57:24.916Z,2.95
2022-07-25T11:59:54.625Z,3.17
2022-07-25T12:02:24.850Z,3.38
2022-07-25T12:04:58.492Z,3.38
2022-07-25T12:07:44.627Z,3.40
2022-07-25T12:10:16.684Z,3.80
2022-07-25T12:12:50.698Z,3.58
2022-07-25T12:15:22.017Z,3.35
2022-07-25T12:17:51.319Z,3.72
2022-07-25T12:20:21.657Z,3.28
2022-07-25T12:22:52.361Z,4.00
2022-07-25T12:25:20.706Z,3.95
2022-07-25T12:27:49.830Z,3.90
2022-07-25T12:30:18.525Z,3.63
2022-07-25T12:32:48.042Z,3.50
2022-07-25T12:35:16.184Z,3.78
2022-07-25T12:37:44.576Z,3.72
2022-07-25T12:40:15.114Z,4.00
2022-07-25T12:42:43.342Z,3.80
2022-07-25T12:45:12.385Z,4.03
2022-07-25T12:47:40.431Z,3.78
2022-07-25T12:50:10.644Z,4.00
2022-07-25T12:52:39.140Z,4.15
2022-07-25T12:55:08.916Z,4.00
2022-07-25T12:57:37.744Z,3.72
2022-07-25T13:00:07.270Z,3.90
2022-07-25T13:02:35.478Z,4.20
2022-07-25T13:05:03.660Z,3.63
2022-07-25T13:07:33.855Z,3.83
2022-07-25T13:10:02.154Z,4.22
2022-07-25T13:12:30.234Z,4.53
2022-07-25T13:14:58.529Z,4.47
2022-07-25T13:17:27.864Z,4.85
2022-07-25T13:19:56.652Z,4.45
2022-07-25T13:22:25.236Z,4.65
2022-07-25T13:24:55.765Z,4.65
2022-07-25T13:27:24.084Z,4.55
2022-07-25T13:29:54.545Z,5.28
2022-07-25T13:32:23.293Z,6.05
2022-07-25T13:34:51.514Z,6.78
2022-07-25T13:37:19.709Z,5.82
2022-07-25T13:39:47.785Z,7.07
2022-07-25T13:42:17.283Z,6.07
2022-07-25T13:44:45.355Z,6.20
2022-07-25T13:47:13.531Z,5.53
2022-07-25T13:49:41.891Z,8.15
2022-07-25T13:52:10.031Z,6.78
2022-07-25T13:54:38.380Z,6.43
2022-07-25T13:57:06.502Z,4.65
2022-07-25T13:59:36.131Z,3.55
2022-07-25T14:02:04.311Z,3.55
2022-07-25T14:04:32.751Z,3.97
2022-07-25T14:07:01.215Z,3.40
2022-07-25T14:09:29.502Z,3.33
2022-07-25T14:11:57.694Z,3.15
2022-07-25T14:14:25.949Z,3.30
2022-07-25T14:16:55.648Z,2.97
2022-07-25T14:19:24.270Z,3.65
2022-07-25T14:21:52.334Z,3.13
2022-07-25T14:24:20.613Z,2.60
2022-07-25T14:26:49.679Z,2.55
2022-07-25T14:29:18.203Z,2.80
2022-07-25T14:31:46.699Z,2.90
2022-07-25T14:34:16.471Z,5.10
2022-07-25T14:36:47.623Z,4.25
2022-07-25T14:39:16.033Z,3.47
2022-07-25T14:41:44.343Z,3.10
2022-07-25T14:44:13.490Z,3.92
2022-07-25T14:46:43.002Z,3.42
2022-07-25T14:49:13.829Z,3.10
2022-07-25T14:51:45.400Z,3.20
2022-07-25T14:54:13.536Z,2.78
2022-07-25T14:56:41.934Z,2.90
2022-07-25T14:59:10.524Z,2.95
2022-07-25T15:01:40.000Z,2.65
2022-07-25T15:04:08.102Z,2.63
2022-07-25T15:06:37.097Z,2.63
2022-07-25T15:09:07.262Z,2.40
2022-07-25T15:11:35.584Z,2.55
2022-07-25T15:14:03.783Z,2.40
2022-07-25T15:16:32.014Z,2.30
2022-07-25T15:19:15.686Z,2.50
2022-07-25T15:21:44.946Z,2.40
2022-07-25T15:24:14.769Z,2.45
2022-07-25T15:26:43.077Z,2.38
2022-07-25T15:29:13.561Z,2.70
2022-07-25T15:31:41.710Z,2.42
2022-07-25T15:34:10.003Z,2.20
2022-07-25T15:36:38.090Z,1.92
2022-07-25T15:39:06.575Z,1.73
2022-07-25T15:41:36.521Z,1.85
2022-07-25T15:44:05.097Z,2.00
2022-07-25T15:46:33.251Z,1.70
2022-07-25T15:49:02.563Z,1.60
2022-07-25T15:51:30.807Z,1.42
2022-07-25T15:53:58.865Z,1.40
2022-07-25T15:56:26.941Z,1.58
2022-07-25T15:58:56.435Z,1.50
2022-07-25T16:01:24.601Z,1.48
2022-07-25T16:03:52.831Z,1.50
2022-07-25T16:06:21.618Z,1.80
2022-07-25T16:08:50.325Z,2.30
2022-07-25T16:11:25.139Z,2.03
2022-07-25T16:13:53.902Z,1.88
2022-07-25T16:16:23.714Z,1.55
2022-07-25T16:18:52.059Z,2.00
2022-07-25T16:21:20.211Z,1.48
2022-07-25T16:23:48.279Z,1.85
2022-07-25T16:26:16.322Z,1.90
2022-07-25T16:28:45.405Z,2.65
2022-07-25T16:31:13.799Z,2.95
2022-07-25T16:33:43.270Z,2.35
2022-07-25T16:36:12.208Z,1.90
2022-07-25T16:38:40.349Z,2.45
2022-07-25T16:41:08.392Z,4.43
2022-07-25T16:43:36.552Z,4.68
2022-07-25T16:46:04.869Z,3.05
2022-07-25T16:48:33.223Z,2.20
2022-07-25T16:51:02.732Z,2.25
2022-07-25T16:53:32.799Z,2.13
2022-07-25T16:56:01.000Z,2.85
2022-07-25T16:58:29.448Z,2.50
2022-07-25T17:00:57.539Z,2.30
2022-07-25T17:03:25.567Z,2.47
2022-07-25T17:05:54.742Z,2.53
2022-07-25T17:08:24.339Z,2.13
2022-07-25T17:10:52.587Z,2.88
2022-07-25T17:13:20.636Z,2.35
2022-07-25T17:15:48.945Z,2.30
2022-07-25T17:18:17.226Z,2.45
2022-07-25T17:20:45.377Z,2.90
2022-07-25T17:23:13.468Z,2.47
2022-07-25T17:25:46.209Z,2.95
2022-07-25T17:28:18.777Z,2.05
2022-07-25T17:30:47.254Z,2.45
2022-07-25T17:33:15.548Z,2.47
2022-07-25T17:35:43.861Z,2.95
2022-07-25T17:38:12.561Z,2.45
2022-07-25T17:40:44.057Z,2.78
2022-07-25T17:43:12.109Z,2.20
2022-07-25T17:45:40.238Z,2.42
2022-07-25T17:48:08.418Z,2.50
2022-07-25T17:50:36.618Z,2.60
2022-07-25T17:53:04.935Z,2.50
2022-07-25T17:55:38.542Z,2.50
2022-07-25T17:58:08.662Z,3.10
2022-07-25T18:00:36.714Z,2.50
2022-07-25T18:03:05.459Z,2.58
2022-07-25T18:05:33.640Z,2.58
2022-07-25T18:08:03.063Z,2.90
2022-07-25T18:10:31.487Z,2.55
2022-07-25T18:13:02.123Z,2.67
2022-07-25T18:15:31.758Z,2.42
2022-07-25T18:18:00.090Z,2.60
2022-07-25T18:20:28.984Z,2.35
2022-07-25T18:22:58.697Z,2.30
2022-07-25T18:25:27.315Z,2.50
2022-07-25T18:27:55.401Z,2.80
2022-07-25T18:30:28.721Z,2.72
2022-07-25T18:32:58.671Z,2.40
2022-07-25T18:35:26.817Z,1.98
2022-07-25T18:37:54.877Z,2.80
2022-07-25T18:40:23.239Z,2.70
2022-07-25T18:42:51.280Z,2.80
2022-07-25T18:45:19.423Z,2.35
2022-07-25T18:47:48.652Z,2.33
2022-07-25T18:50:20.197Z,2.58
2022-07-25T18:52:48.237Z,2.30
2022-07-25T18:55:16.392Z,2.40
2022-07-25T18:57:44.692Z,1.85
2022-07-25T19:00:13.163Z,2.10
2022-07-25T19:02:41.229Z,2.13
2022-07-25T19:05:10.194Z,1.90
2022-07-25T19:07:40.494Z,1.77
2022-07-25T19:10:09.792Z,1.90
2022-07-25T19:12:38.328Z,1.77
2022-07-25T19:15:07.835Z,1.40
2022-07-25T19:17:37.185Z,1.80
2022-07-25T19:20:06.254Z,2.03
2022-07-25T19:22:34.455Z,2.30
2022-07-25T19:25:07.494Z,2.22
2022-07-25T19:27:35.687Z,1.80
2022-07-25T19:30:06.838Z,1.70
2022-07-25T19:32:35.430Z,1.90
2022-07-25T19:35:03.896Z,2.15
2022-07-25T19:37:32.020Z,1.67
2022-07-25T19:40:00.173Z,1.60
2022-07-25T19:42:30.031Z,1.30
2022-07-25T19:44:58.159Z,1.52
2022-07-25T19:47:26.633Z,1.67
2022-07-25T19:49:54.752Z,2.20
2022-07-25T19:52:22.774Z,1.73
2022-07-25T19:54:50.958Z,1.52
2022-07-25T19:57:18.942Z,1.40
2022-07-25T19:59:48.342Z,1.55
2022-07-25T20:02:16.449Z,1.70
2022-07-25T20:04:44.581Z,1.60
2022-07-25T20:07:12.640Z,1.58
2022-07-25T20:09:40.809Z,1.90
2022-07-25T20:12:09.408Z,1.58
2022-07-25T20:14:37.483Z,1.60
2022-07-25T20:17:08.082Z,1.77
2022-07-25T20:19:36.781Z,1.63
2022-07-25T20:22:05.530Z,1.40
2022-07-25T20:24:33.709Z,1.60
2022-07-25T20:27:02.140Z,1.33
2022-07-25T20:29:30.204Z,1.63
2022-07-25T20:31:58.848Z,1.77
2022-07-25T20:34:28.267Z,1.50
2022-07-25T20:36:56.360Z,1.58
2022-07-25T20:39:26.266Z,1.77
2022-07-25T20:41:56.825Z,1.65
2022-07-25T20:44:24.858Z,1.45
2022-07-25T20:46:52.980Z,1.42
2022-07-25T20:49:21.096Z,1.90
2022-07-25T20:51:54.465Z,1.63
2022-07-25T20:54:22.937Z,1.33
2022-07-25T20:56:51.477Z,1.60
2022-07-25T20:59:19.614Z,1.70
2022-07-25T21:01:48.039Z,1.88
2022-07-25T21:04:16.890Z,1.55
2022-07-25T21:06:45.993Z,1.45
2022-07-25T21:09:15.790Z,1.60
2022-07-25T21:11:43.981Z,1.60
2022-07-25T21:14:12.217Z,1.45
2022-07-25T21:16:40.313Z,1.35
2022-07-25T21:19:08.968Z,1.50
2022-07-25T21:21:37.221Z,1.60
2022-07-25T21:24:06.485Z,1.58
2022-07-25T21:26:37.006Z,1.55
2022-07-25T21:29:05.385Z,1.35
2022-07-25T21:31:34.513Z,1.63
2022-07-25T21:34:03.220Z,1.77
2022-07-25T21:36:31.452Z,1.58
2022-07-25T21:38:59.462Z,1.50
2022-07-25T21:41:27.561Z,1.60
2022-07-25T21:43:56.953Z,1.70
2022-07-25T21:46:25.187Z,1.48
2022-07-25T21:49:11.037Z,1.80
2022-07-25T21:51:40.878Z,1.55
2022-07-25T21:54:09.649Z,1.80
2022-07-25T21:56:37.781Z,1.35
2022-07-25T21:59:07.455Z,1.75
2022-07-25T22:01:36.092Z,1.50
2022-07-25T22:04:05.122Z,2.30
2022-07-25T22:06:33.389Z,2.42
2022-07-25T22:09:01.584Z,2.72
2022-07-25T22:11:42.937Z,2.78
2022-07-25T22:14:16.631Z,3.20
2022-07-25T22:16:45.009Z,3.53
2022-07-25T22:19:13.493Z,3.92
2022-07-25T22:21:42.085Z,3.70
2022-07-25T22:24:10.851Z,3.13
2022-07-25T22:26:38.985Z,2.78
2022-07-25T22:29:07.616Z,2.42
2022-07-25T22:31:38.754Z,2.85
2022-07-25T22:34:07.546Z,2.00
2022-07-25T22:36:35.664Z,2.38
2022-07-25T22:39:04.130Z,1.98
2022-07-25T22:41:32.606Z,2.03
2022-07-25T22:44:00.645Z,2.28
2022-07-25T22:46:29.133Z,1.85
2022-07-25T22:48:59.800Z,2.35
2022-07-25T22:51:29.113Z,1.98
2022-07-25T22:53:57.764Z,1.98
2022-07-25T22:56:26.183Z,1.60
2022-07-25T22:58:54.680Z,1.70
2022-07-25T23:01:23.203Z,1.63
2022-07-25T23:03:51.546Z,1.98
2022-07-25T23:06:22.161Z,1.77
2022-07-25T23:08:50.575Z,2.20
2022-07-25T23:11:19.144Z,2.10
2022-07-25T23:13:47.424Z,1.40
2022-07-25T23:16:15.617Z,1.73
2022-07-25T23:18:43.855Z,1.95
2022-07-25T23:21:12.460Z,1.60
2022-07-25T23:23:41.878Z,1.58
2022-07-25T23:26:10.062Z,1.58
2022-07-25T23:28:38.227Z,1.48
2022-07-25T23:31:06.526Z,1.40
2022-07-25T23:33:34.622Z,1.30
2022-07-25T23:36:02.985Z,2.00
2022-07-25T23:38:31.073Z,2.05
2022-07-25T23:41:00.603Z,1.45
2022-07-25T23:43:56.686Z,2.00
2022-07-25T23:46:17.058Z,1.73
2022-07-25T23:48:46.955Z,1.70
2022-07-25T23:51:16.581Z,1.40
2022-07-25T23:53:45.072Z,2.10
2022-07-25T23:56:20.195Z,2.28
2022-07-25T23:58:50.242Z,1.88
